Time;durP1;ratioP1;P1;durP2;ratioP2;P2;SDS_P1;SDS_P2;PMS_P1;PMS_P2;Temp;Humidity;BMP_temperature;BMP_pressure;BME280_temperature;BME280_humidity;BME280_pressure;Samples;Min_cycle;Max_cycle;Signal;HPM_P1;HPM_P2
2022/10/24 00:01:13;;;;;;;13.93;8.43;;;;;;;13.55;100.00;99896.78;5045209;28;20041;-74
2022/10/24 00:03:39;;;;;;;15.88;8.82;;;;;;;13.56;100.00;99904.66;5046382;28;20045;-72
2022/10/24 00:06:08;;;;;;;15.15;8.15;;;;;;;13.57;100.00;99902.84;5044296;28;20059;-73
2022/10/24 00:08:36;;;;;;;13.10;8.35;;;;;;;13.46;100.00;99887.63;5038662;28;20071;-74
2022/10/24 00:11:12;;;;;;;15.65;8.80;;;;;;;13.55;100.00;99918.06;5043798;28;20050;-75
2022/10/24 00:13:39;;;;;;;14.77;8.88;;;;;;;13.49;100.00;99921.13;5044769;28;20057;-74
2022/10/24 00:16:06;;;;;;;14.63;8.18;;;;;;;13.52;100.00;99924.47;5040317;28;20404;-75
2022/10/24 00:18:33;;;;;;;14.90;8.57;;;;;;;13.34;100.00;99897.28;5032797;28;20041;-73
2022/10/24 00:21:00;;;;;;;15.45;8.60;;;;;;;13.45;100.00;99912.50;5044987;28;20069;-72
2022/10/24 00:23:26;;;;;;;14.13;8.30;;;;;;;13.43;100.00;99913.56;5045758;28;20047;-73
2022/10/24 00:25:53;;;;;;;13.80;8.48;;;;;;;13.27;100.00;99884.47;5045325;28;20057;-73
2022/10/24 00:28:20;;;;;;;15.85;8.73;;;;;;;13.28;100.00;99895.00;5041093;28;20041;-73
2022/10/24 00:30:51;;;;;;;14.98;8.40;;;;;;;13.23;100.00;99896.25;5041561;28;20618;-74
2022/10/24 00:33:17;;;;;;;13.30;8.05;;;;;;;13.36;100.00;99917.59;5046213;28;20037;-74
2022/10/24 00:35:44;;;;;;;14.57;9.05;;;;;;;13.37;100.00;99913.97;5047494;28;20051;-74
2022/10/24 00:38:11;;;;;;;14.40;7.95;;;;;;;13.32;100.00;99904.50;5036536;28;20049;-73
2022/10/24 00:40:38;;;;;;;10.68;7.32;;;;;;;13.34;100.00;99910.56;5044889;28;20052;-73
2022/10/24 00:43:20;;;;;;;15.70;8.38;;;;;;;13.35;100.00;99908.75;5041738;28;20060;-73
2022/10/24 00:45:56;;;;;;;17.15;9.50;;;;;;;13.39;100.00;99902.25;5036567;28;20048;-73
2022/10/24 00:48:50;;;;;;;14.18;8.88;;;;;;;13.40;100.00;99908.44;5034515;28;20049;-72
2022/10/24 00:51:31;;;;;;;12.32;8.77;;;;;;;13.39;100.00;99906.72;5043224;28;20379;-74
2022/10/24 00:54:07;;;;;;;11.70;8.70;;;;;;;13.37;100.00;99904.19;5042726;28;20057;-73
2022/10/24 00:56:40;;;;;;;12.52;8.02;;;;;;;13.31;100.00;99901.94;5038855;28;20045;-74
2022/10/24 00:59:08;;;;;;;10.43;7.95;;;;;;;13.27;100.00;99892.44;5034646;28;20045;-72
2022/10/24 01:01:35;;;;;;;11.65;8.50;;;;;;;13.23;100.00;99897.09;5045239;28;20053;-73
2022/10/24 01:04:02;;;;;;;17.80;9.48;;;;;;;13.17;100.00;99902.84;5026558;28;20048;-72
2022/10/24 01:06:45;;;;;;;13.00;8.82;;;;;;;13.05;100.00;99882.34;5041495;28;20136;-73
2022/10/24 01:09:17;;;;;;;16.52;8.20;;;;;;;13.03;100.00;99886.06;5037482;28;20540;-73
2022/10/24 01:12:14;;;;;;;18.95;9.43;;;;;;;12.93;100.00;99894.59;5041834;28;20056;-73
2022/10/24 01:15:03;;;;;;;13.02;7.93;;;;;;;12.85;100.00;99885.44;5026880;28;20136;-73
2022/10/24 01:17:51;;;;;;;13.88;9.77;;;;;;;12.80;100.00;99883.06;5032257;28;20051;-74
2022/10/24 01:20:24;;;;;;;15.63;9.02;;;;;;;12.76;100.00;99881.53;5045471;28;20041;-73
2022/10/24 01:23:03;;;;;;;14.40;8.25;;;;;;;12.59;100.00;99861.38;5043436;28;20063;-73
2022/10/24 01:25:37;;;;;;;12.50;8.88;;;;;;;12.55;100.00;99862.53;5036740;28;20057;-73
2022/10/24 01:28:18;;;;;;;14.57;9.38;;;;;;;12.61;100.00;99882.53;5034412;28;20037;-72
2022/10/24 01:30:52;;;;;;;14.95;8.32;;;;;;;12.44;100.00;99867.66;5043716;28;20049;-73
2022/10/24 01:33:45;;;;;;;11.65;7.93;;;;;;;12.61;100.00;99882.53;5046461;28;20049;-76
2022/10/24 01:36:22;;;;;;;12.88;7.60;;;;;;;12.57;100.00;99867.75;5038620;28;20049;-73
2022/10/24 01:38:55;;;;;;;9.63;7.88;;;;;;;12.61;100.00;99866.59;5038177;28;20049;-73
2022/10/24 01:41:26;;;;;;;11.27;7.85;;;;;;;12.44;100.00;99837.59;5042828;28;20106;-73
2022/10/24 01:43:53;;;;;;;12.05;8.60;;;;;;;12.45;100.00;99840.16;5040995;28;20041;-72
2022/10/24 01:46:27;;;;;;;15.57;8.27;;;;;;;12.64;100.00;99858.44;5041457;28;20091;-72
2022/10/24 01:49:01;;;;;;;13.20;8.25;;;;;;;12.63;100.00;99854.94;5039817;28;20141;-73
2022/10/24 01:51:30;;;;;;;13.73;8.02;;;;;;;12.58;100.00;99858.84;5040224;28;20049;-74
2022/10/24 01:53:57;;;;;;;11.80;8.45;;;;;;;12.56;100.00;99852.78;5045814;28;20057;-73
2022/10/24 01:56:25;;;;;;;16.00;8.63;;;;;;;12.49;100.00;99862.91;5038585;28;20097;-73
2022/10/24 01:58:52;;;;;;;12.10;7.82;;;;;;;12.34;100.00;99847.94;5019791;28;20041;-73
2022/10/24 02:01:22;;;;;;;14.52;8.23;;;;;;;12.39;100.00;99855.63;5043860;28;20053;-74
2022/10/24 02:03:56;;;;;;;10.85;7.47;;;;;;;12.43;100.00;99849.19;5041533;28;20056;-72
2022/10/24 02:06:30;;;;;;;14.00;7.82;;;;;;;12.44;100.00;99857.03;5042095;28;20048;-72
2022/10/24 02:09:02;;;;;;;13.15;7.50;;;;;;;12.40;100.00;99849.38;5040135;28;20588;-73
2022/10/24 02:11:34;;;;;;;14.63;8.48;;;;;;;12.33;100.00;99846.25;5042883;28;20478;-74
2022/10/24 02:14:09;;;;;;;15.63;8.25;;;;;;;12.33;100.00;99845.38;5044029;28;20171;-73
2022/10/24 02:16:36;;;;;;;13.10;8.68;;;;;;;12.28;100.00;99849.19;5038293;28;21168;-74
2022/10/24 02:19:03;;;;;;;14.82;8.55;;;;;;;12.17;100.00;99813.66;5034094;28;20056;-74
2022/10/24 02:22:17;;;;;;;16.33;9.48;;;;;;;12.23;100.00;99824.75;5038649;28;20148;-74
2022/10/24 02:24:51;;;;;;;12.43;8.40;;;;;;;12.19;100.00;99833.84;5033284;28;20390;-74
2022/10/24 02:27:22;;;;;;;10.43;7.60;;;;;;;12.12;100.00;99842.28;5035191;28;20045;-74
2022/10/24 02:30:10;;;;;;;13.82;8.35;;;;;;;12.09;100.00;99861.06;5039867;28;20049;-73
2022/10/24 02:32:52;;;;;;;10.30;7.63;;;;;;;11.88;100.00;99837.53;5042809;28;20140;-74
2022/10/24 02:35:25;;;;;;;15.13;8.60;;;;;;;12.03;100.00;99862.28;5044054;28;20071;-74
2022/10/24 02:37:57;;;;;;;10.82;8.15;;;;;;;11.84;100.00;99829.84;5039333;28;20037;-73
2022/10/24 02:40:24;;;;;;;13.68;8.23;;;;;;;11.97;100.00;99860.00;5044191;28;20049;-74
2022/10/24 02:42:54;;;;;;;14.00;7.63;;;;;;;11.94;100.00;99844.28;5043024;28;20056;-73
2022/10/24 02:45:22;;;;;;;10.55;6.88;;;;;;;11.97;100.00;99852.03;5037121;28;20052;-73
2022/10/24 02:47:53;;;;;;;11.43;7.95;;;;;;;11.76;100.00;99818.88;5036789;28;20045;-73
2022/10/24 02:50:21;;;;;;;11.90;8.55;;;;;;;11.90;100.00;99843.59;5038379;28;20067;-74
2022/10/24 02:52:47;;;;;;;12.30;7.47;;;;;;;11.89;100.00;99838.38;5042504;28;20148;-74
2022/10/24 02:55:14;;;;;;;13.23;7.38;;;;;;;11.92;100.00;99851.47;5034622;28;20045;-73
2022/10/24 02:57:40;;;;;;;10.05;7.30;;;;;;;11.81;100.00;99822.94;5036393;28;20047;-74
2022/10/24 03:00:08;;;;;;;11.23;7.07;;;;;;;11.83;100.00;99822.84;5037714;28;20045;-74
2022/10/24 03:02:34;;;;;;;10.02;7.53;;;;;;;11.96;100.00;99845.03;5039896;28;20044;-74
2022/10/24 03:05:01;;;;;;;12.80;8.85;;;;;;;11.82;100.00;99829.09;5042379;28;20075;-74
2022/10/24 03:07:27;;;;;;;14.95;8.32;;;;;;;12.03;100.00;99862.28;5036170;28;20482;-73
2022/10/24 03:09:59;;;;;;;12.38;8.20;;;;;;;11.89;100.00;99838.38;5037853;28;20053;-73
2022/10/24 03:12:25;;;;;;;12.68;8.10;;;;;;;12.04;100.00;99855.16;5044279;28;20045;-73
2022/10/24 03:14:52;;;;;;;13.38;7.47;;;;;;;11.95;100.00;99840.69;5038544;28;20049;-73
2022/10/24 03:17:20;;;;;;;9.10;7.15;;;;;;;12.05;100.00;99847.13;5036339;28;20427;-74
2022/10/24 03:19:47;;;;;;;10.18;7.47;;;;;;;12.09;100.00;99848.66;5036032;28;20056;-73
2022/10/24 03:22:13;;;;;;;13.45;7.85;;;;;;;11.91;100.00;99809.97;5041186;28;20045;-73
2022/10/24 03:24:40;;;;;;;8.90;7.00;;;;;;;12.08;100.00;99836.31;5035888;28;20053;-73
2022/10/24 03:27:21;;;;;;;13.43;7.75;;;;;;;12.03;100.00;99827.78;5036795;28;20227;-73
2022/10/24 03:29:47;;;;;;;13.45;7.43;;;;;;;11.87;100.00;99800.47;5037448;28;20045;-74
2022/10/24 03:32:14;;;;;;;10.25;7.40;;;;;;;12.06;100.00;99837.34;5035954;28;20042;-74
2022/10/24 03:34:41;;;;;;;9.55;7.10;;;;;;;11.96;100.00;99815.84;5041993;28;20068;-74
2022/10/24 03:37:07;;;;;;;13.48;7.70;;;;;;;12.08;100.00;99843.44;5037419;28;20049;-73
2022/10/24 03:39:34;;;;;;;11.38;8.10;;;;;;;12.10;100.00;99855.66;5035836;28;20061;-73
2022/10/24 03:42:00;;;;;;;11.48;7.95;;;;;;;12.08;100.00;99840.78;5038196;28;20055;-73
2022/10/24 03:44:27;;;;;;;13.05;8.02;;;;;;;12.14;100.00;99864.25;5038324;28;20477;-73
2022/10/24 03:46:54;;;;;;;10.35;7.55;;;;;;;12.00;100.00;99840.38;5041456;28;20424;-73
2022/10/24 03:49:20;;;;;;;12.05;7.32;;;;;;;11.96;100.00;99837.09;5034827;28;20131;-73
2022/10/24 03:51:47;;;;;;;10.27;7.13;;;;;;;12.16;100.00;99865.03;5041806;28;20055;-73
2022/10/24 03:54:14;;;;;;;12.13;8.88;;;;;;;12.09;100.00;99850.44;5043165;28;20044;-73
2022/10/24 03:56:42;;;;;;;17.45;9.10;;;;;;;12.16;100.00;99871.19;5027180;28;20080;-73
2022/10/24 03:59:09;;;;;;;14.38;8.23;;;;;;;12.15;100.00;99864.16;5032268;28;20045;-75
2022/10/24 04:01:36;;;;;;;15.73;9.10;;;;;;;12.21;100.00;99877.06;5037688;28;20148;-74
2022/10/24 04:04:03;;;;;;;15.90;9.05;;;;;;;12.21;100.00;99869.09;5039883;28;20477;-75
2022/10/24 04:06:29;;;;;;;11.65;8.48;;;;;;;12.13;100.00;99849.28;5035638;28;20052;-75
2022/10/24 04:09:02;;;;;;;14.55;8.93;;;;;;;12.25;100.00;99870.63;5027581;28;20041;-75
2022/10/24 04:11:29;;;;;;;10.40;8.52;;;;;;;12.28;100.00;99872.22;5034936;28;20677;-74
2022/10/24 04:13:56;;;;;;;11.85;7.90;;;;;;;12.32;100.00;99875.53;5041507;28;20061;-74
2022/10/24 04:16:23;;;;;;;12.20;8.45;;;;;;;12.14;100.00;99846.53;5044249;28;20575;-74
2022/10/24 04:18:50;;;;;;;9.70;8.18;;;;;;;12.31;100.00;99874.69;5040633;28;20131;-75
2022/10/24 04:21:16;;;;;;;10.27;7.72;;;;;;;12.32;100.00;99884.38;5047471;28;20057;-74
2022/10/24 04:23:47;;;;;;;10.27;7.78;;;;;;;12.32;100.00;99864.91;5043457;28;20566;-74
2022/10/24 04:26:15;;;;;;;10.50;7.88;;;;;;;12.35;100.00;99851.47;5042703;28;20557;-74
2022/10/24 04:28:42;;;;;;;12.10;8.65;;;;;;;12.36;100.00;99838.09;5030398;28;20128;-73
2022/10/24 04:31:09;;;;;;;13.18;8.25;;;;;;;12.30;100.00;99826.03;5042358;28;20048;-74
2022/10/24 04:33:36;;;;;;;10.85;7.57;;;;;;;12.47;100.00;99853.34;5042436;28;20731;-75
2022/10/24 04:36:02;;;;;;;14.20;7.75;;;;;;;12.37;100.00;99831.84;5047521;28;20603;-75
2022/10/24 04:38:29;;;;;;;12.05;8.07;;;;;;;12.48;100.00;99839.97;5038278;28;20094;-75
2022/10/24 04:40:59;;;;;;;15.07;9.27;;;;;;;12.56;100.00;99858.94;5044659;28;20041;-75
2022/10/24 04:43:26;;;;;;;13.73;8.60;;;;;;;12.39;100.00;99826.44;5046209;28;20491;-74
2022/10/24 04:45:53;;;;;;;15.15;9.40;;;;;;;12.58;100.00;99859.69;5043222;28;20047;-75
2022/10/24 04:48:20;;;;;;;15.82;9.60;;;;;;;12.63;100.00;99859.38;5036518;28;20316;-74
2022/10/24 04:50:47;;;;;;;16.75;9.27;;;;;;;12.61;100.00;99856.81;5040968;28;20068;-75
2022/10/24 04:53:14;;;;;;;16.85;8.73;;;;;;;12.68;100.00;99862.59;5045023;28;20051;-75
2022/10/24 04:55:41;;;;;;;14.43;9.75;;;;;;;12.70;100.00;99858.06;5043899;28;20413;-75
2022/10/24 04:58:08;;;;;;;17.40;9.00;;;;;;;12.85;100.00;99859.72;5038055;28;20494;-74
2022/10/24 05:00:35;;;;;;;14.38;8.55;;;;;;;12.75;100.00;99829.38;5037012;28;20154;-74
2022/10/24 05:03:02;;;;;;;19.25;9.10;;;;;;;13.02;100.00;99853.31;5043233;28;20066;-75
2022/10/24 05:05:28;;;;;;;15.02;9.23;;;;;;;12.89;100.00;99823.19;5040670;28;20080;-74
2022/10/24 05:07:55;;;;;;;10.98;7.70;;;;;;;12.99;100.00;99827.78;5037421;28;20041;-74
2022/10/24 05:10:21;;;;;;;17.38;9.10;;;;;;;13.18;100.00;99847.88;5037673;28;20052;-75
2022/10/24 05:12:48;;;;;;;14.52;7.57;;;;;;;13.21;100.00;99855.66;5027582;28;20044;-75
2022/10/24 05:15:15;;;;;;;15.73;8.70;;;;;;;13.20;100.00;99848.63;5037691;28;20053;-75
2022/10/24 05:17:42;;;;;;;12.82;8.70;;;;;;;13.03;100.00;99835.56;5040191;28;20041;-75
2022/10/24 05:20:09;;;;;;;13.95;7.80;;;;;;;13.02;100.00;99839.16;5043031;28;20045;-74
2022/10/24 05:22:36;;;;;;;15.80;8.38;;;;;;;13.11;100.00;99851.84;5035345;28;20045;-75
2022/10/24 05:25:03;;;;;;;13.30;8.00;;;;;;;12.98;100.00;99855.31;5045237;28;20069;-75
2022/10/24 05:27:29;;;;;;;10.52;7.60;;;;;;;12.99;100.00;99866.78;5044523;28;20041;-75
2022/10/24 05:29:56;;;;;;;7.88;6.72;;;;;;;12.93;100.00;99856.53;5040482;28;20049;-76
2022/10/24 05:32:23;;;;;;;14.82;8.60;;;;;;;12.90;100.00;99857.63;5041433;28;20511;-75
2022/10/24 05:34:50;;;;;;;14.95;8.30;;;;;;;12.84;100.00;99860.66;5045661;28;20075;-74
2022/10/24 05:37:17;;;;;;;11.68;8.02;;;;;;;12.74;100.00;99851.59;5039391;28;20068;-75
2022/10/24 05:39:44;;;;;;;11.50;7.82;;;;;;;12.75;100.00;99855.09;5035386;28;20047;-73
2022/10/24 05:42:10;;;;;;;10.82;7.32;;;;;;;12.55;100.00;99829.81;5045742;28;20493;-74
2022/10/24 05:44:37;;;;;;;14.00;8.25;;;;;;;12.73;100.00;99860.53;5040688;28;20079;-74
2022/10/24 05:47:04;;;;;;;12.32;7.53;;;;;;;12.68;100.00;99862.59;5043642;28;20128;-73
2022/10/24 05:49:31;;;;;;;14.45;8.82;;;;;;;12.53;100.00;99851.16;5031711;28;20049;-73
2022/10/24 05:51:57;;;;;;;16.13;9.70;;;;;;;12.70;100.00;99876.66;5047767;28;20133;-75
2022/10/24 05:54:24;;;;;;;15.00;9.45;;;;;;;12.64;100.00;99869.06;5039492;28;20065;-75
2022/10/24 05:57:03;;;;;;;16.02;8.90;;;;;;;12.67;100.00;99878.63;5040578;28;20049;-75
2022/10/24 05:59:29;;;;;;;13.27;8.48;;;;;;;12.47;100.00;99853.34;5033033;28;20045;-74
2022/10/24 06:01:57;;;;;;;14.20;8.35;;;;;;;12.67;100.00;99883.94;5040511;28;20048;-74
2022/10/24 06:04:25;;;;;;;16.73;8.70;;;;;;;12.68;100.00;99893.63;5041771;28;20090;-75
2022/10/24 06:06:52;;;;;;;14.77;8.77;;;;;;;12.55;100.00;99862.53;5038864;28;20049;-74
2022/10/24 06:09:19;;;;;;;13.25;7.90;;;;;;;12.68;100.00;99883.84;5033095;28;20041;-75
2022/10/24 06:11:45;;;;;;;14.63;8.52;;;;;;;12.60;100.00;99875.50;5041227;28;20053;-74
2022/10/24 06:14:12;;;;;;;12.30;8.90;;;;;;;12.32;100.00;99833.91;5041548;28;20132;-75
2022/10/24 06:16:39;;;;;;;10.27;7.75;;;;;;;12.60;100.00;99880.81;5036636;28;20046;-75
2022/10/24 06:19:05;;;;;;;12.65;8.10;;;;;;;12.60;100.00;99879.00;5036425;28;20045;-76
2022/10/24 06:21:32;;;;;;;12.65;8.52;;;;;;;12.58;100.00;99875.63;5041950;28;20049;-74
2022/10/24 06:23:59;;;;;;;12.18;8.30;;;;;;;12.60;100.00;99873.69;5039104;28;20040;-75
2022/10/24 06:26:25;;;;;;;15.45;9.07;;;;;;;12.53;100.00;99872.41;5043665;28;20469;-75
2022/10/24 06:28:53;;;;;;;17.35;10.02;;;;;;;12.47;100.00;99863.97;5036473;28;20053;-74
2022/10/24 06:31:20;;;;;;;19.90;9.30;;;;;;;12.52;100.00;99877.81;5039173;28;20036;-74
2022/10/24 06:33:47;;;;;;;18.70;9.95;;;;;;;12.70;100.00;99907.66;5042106;28;20065;-75
2022/10/24 06:36:13;;;;;;;17.15;9.02;;;;;;;12.64;100.00;99906.25;5042810;28;20742;-74
2022/10/24 06:38:40;;;;;;;16.35;8.68;;;;;;;12.66;100.00;99912.31;5036672;28;20848;-74
2022/10/24 06:41:09;;;;;;;12.93;8.85;;;;;;;12.69;100.00;99906.81;5041160;28;20124;-76
2022/10/24 06:43:36;;;;;;;13.23;8.85;;;;;;;12.73;100.00;99904.81;5036985;28;20058;-74
2022/10/24 06:46:07;;;;;;;14.95;8.60;;;;;;;12.77;100.00;99916.94;5035758;28;20093;-74
2022/10/24 06:48:35;;;;;;;15.88;9.73;;;;;;;12.76;100.00;99908.13;5035923;28;20049;-74
2022/10/24 06:51:03;;;;;;;15.98;9.15;;;;;;;12.88;100.00;99927.75;5036995;28;20136;-75
2022/10/24 06:53:31;;;;;;;12.05;8.52;;;;;;;12.87;100.00;99910.13;5039991;28;20045;-75
2022/10/24 06:56:02;;;;;;;15.10;11.65;;;;;;;12.51;100.00;99844.22;5037344;28;20063;-75
2022/10/24 06:58:34;;;;;;;19.58;12.10;;;;;;;13.05;100.00;99926.69;5034168;28;20052;-73
2022/10/24 07:01:16;;;;;;;19.35;10.07;;;;;;;13.10;100.00;99930.72;5035932;28;20041;-73
2022/10/24 07:03:44;;;;;;;15.45;9.30;;;;;;;13.23;100.00;99938.78;5039800;28;20053;-73
2022/10/24 07:06:26;;;;;;;16.90;9.45;;;;;;;13.24;100.00;99924.53;5038755;28;20044;-76
2022/10/24 07:08:54;;;;;;;19.20;9.50;;;;;;;13.37;100.00;99935.25;5037502;28;20067;-74
2022/10/24 07:11:21;;;;;;;16.38;8.85;;;;;;;13.42;100.00;99933.97;5044878;28;20053;-73
2022/10/24 07:13:48;;;;;;;18.13;8.18;;;;;;;13.39;100.00;99915.56;5038865;28;20490;-75
2022/10/24 07:16:15;;;;;;;15.82;8.70;;;;;;;13.61;100.00;99950.44;5037561;28;20045;-76
2022/10/24 07:18:42;;;;;;;20.40;8.32;;;;;;;13.61;100.00;99933.63;5035741;28;22372;-75
2022/10/24 07:21:14;;;;;;;18.33;7.47;;;;;;;13.71;100.00;99934.69;5039397;28;20091;-75
2022/10/24 07:23:41;;;;;;;19.67;8.43;;;;;;;13.65;100.00;99909.38;5036658;28;20045;-76
2022/10/24 07:26:13;;;;;;;16.75;8.40;;;;;;;13.81;100.00;99924.31;5034548;28;20465;-74
2022/10/24 07:28:43;;;;;;;20.48;8.38;;;;;;;13.87;100.00;99919.41;5034060;28;20101;-73
2022/10/24 07:31:12;;;;;;;19.70;7.90;;;;;;;13.92;100.00;99916.44;5035114;28;20728;-75
2022/10/24 07:33:39;;;;;;;11.65;7.07;;;;;;;13.99;100.00;99915.94;5036233;28;20052;-74
2022/10/24 07:36:06;;;;;;;16.80;7.90;;;;;;;14.08;100.00;99925.06;5042079;28;20048;-75
2022/10/24 07:38:33;;;;;;;15.13;7.60;;;;;;;14.11;100.00;99914.22;5039917;28;20045;-73
2022/10/24 07:41:04;;;;;;;17.58;8.43;;;;;;;14.10;100.00;99912.50;5033531;28;20041;-75
2022/10/24 07:43:32;;;;;;;15.82;7.05;;;;;;;14.20;100.00;99926.88;5039324;28;20130;-75
2022/10/24 07:45:58;;;;;;;15.43;7.38;;;;;;;14.21;100.00;99915.28;5042296;28;20041;-72
2022/10/24 07:48:30;;;;;;;17.58;7.05;;;;;;;14.19;100.00;99911.00;5039079;28;20099;-73
2022/10/24 07:50:57;;;;;;;18.70;7.28;;;;;;;14.39;100.00;99932.66;5036237;28;20315;-74
2022/10/24 07:53:26;;;;;;;15.27;6.57;;;;;;;14.45;100.00;99941.22;5043387;28;20056;-75
2022/10/24 07:55:53;;;;;;;13.48;6.32;;;;;;;14.39;100.00;99921.13;5040859;28;20051;-73
2022/10/24 07:58:20;;;;;;;15.18;6.40;;;;;;;14.15;100.00;99881.09;5043017;28;20410;-75
2022/10/24 08:00:46;;;;;;;14.80;6.60;;;;;;;14.42;100.00;99909.44;5033206;28;20053;-73
2022/10/24 08:03:13;;;;;;;20.45;6.82;;;;;;;14.55;100.00;99926.25;5047181;28;20055;-75
2022/10/24 08:05:40;;;;;;;16.20;6.53;;;;;;;14.61;100.00;99934.69;5047092;28;20535;-73
2022/10/24 08:08:08;;;;;;;21.63;5.93;;;;;;;14.50;100.00;99929.25;5047831;28;20059;-73
2022/10/24 08:10:55;;;;;;;16.75;5.47;;;;;;;14.33;100.00;99901.09;5039549;28;20052;-74
2022/10/24 08:13:22;;;;;;;18.52;6.55;;;;;;;14.59;100.00;99939.28;5045457;28;20387;-73
2022/10/24 08:15:48;;;;;;;19.92;6.60;;;;;;;14.54;100.00;99929.88;5037601;28;20056;-73
2022/10/24 08:18:15;;;;;;;12.75;6.80;;;;;;;14.61;100.00;99933.84;5039695;28;20119;-78
2022/10/24 08:20:42;;;;;;;14.82;6.22;;;;;;;14.58;100.00;99940.22;5032937;28;20056;-76
2022/10/24 08:23:09;;;;;;;16.50;7.63;;;;;;;14.53;100.00;99929.03;5037926;28;20047;-73
2022/10/24 08:25:40;;;;;;;13.05;7.80;;;;;;;14.53;100.00;99934.38;5036586;28;20084;-76
2022/10/24 08:28:07;;;;;;;11.70;7.60;;;;;;;14.43;100.00;99922.66;5041481;28;20045;-75
2022/10/24 08:30:34;;;;;;;12.18;7.32;;;;;;;14.51;100.00;99944.28;5036718;28;20068;-76
2022/10/24 08:33:01;;;;;;;17.98;9.02;;;;;;;14.49;100.00;99922.22;5042885;28;20045;-74
2022/10/24 08:35:28;;;;;;;16.55;8.98;;;;;;;14.52;100.00;99927.34;5041159;28;20057;-71
2022/10/24 08:37:54;;;;;;;13.38;8.63;;;;;;;14.50;100.00;99918.59;5049830;28;20041;-75
2022/10/24 08:40:21;;;;;;;16.58;8.75;;;;;;;14.47;100.00;99904.66;5034408;28;20053;-75
2022/10/24 08:42:48;;;;;;;18.83;9.63;;;;;;;14.61;100.00;99920.50;5041509;28;20417;-78
2022/10/24 08:45:25;;;;;;;18.73;9.05;;;;;;;14.69;100.00;99921.66;5044546;28;20052;-71
2022/10/24 08:48:05;;;;;;;18.27;8.13;;;;;;;14.84;100.00;99917.03;5038931;28;20053;-76
2022/10/24 08:50:34;;;;;;;21.80;9.68;;;;;;;14.98;100.00;99911.56;5035488;28;20049;-72
2022/10/24 08:53:30;;;;;;;17.27;8.88;;;;;;;15.11;100.00;99910.69;5039401;28;20056;-73
2022/10/24 08:55:59;;;;;;;14.93;7.97;;;;;;;15.27;100.00;99909.41;5038908;28;20057;-77
2022/10/24 08:58:26;;;;;;;16.20;7.50;;;;;;;15.42;100.00;99902.94;5042685;28;20561;-71
2022/10/24 09:00:56;;;;;;;21.15;8.27;;;;;;;15.61;100.00;99902.44;5034952;28;20080;-73
2022/10/24 09:03:34;;;;;;;23.63;6.72;;;;;;;15.57;100.00;99906.34;5036182;28;20486;-73
2022/10/24 09:06:24;;;;;;;19.20;5.88;;;;;;;15.62;100.00;99908.63;5038660;28;20084;-73
2022/10/24 09:09:26;;;;;;;16.70;6.50;;;;;;;15.72;100.00;99918.53;5045554;28;20062;-72
2022/10/24 09:12:08;;;;;;;18.83;7.38;;;;;;;15.82;100.00;99912.47;5041376;28;20045;-72
2022/10/24 09:14:40;;;;;;;19.63;6.65;;;;;;;15.89;100.00;99913.72;5044017;28;20133;-72
2022/10/24 09:17:31;;;;;;;19.15;6.13;;;;;;;15.96;100.00;99912.25;5040954;28;20048;-73
2022/10/24 09:20:02;;;;;;;18.83;6.05;;;;;;;15.93;100.00;99888.47;5036964;28;20092;-73
2022/10/24 09:22:33;;;;;;;15.52;5.75;;;;;;;15.93;100.00;99896.47;5043632;28;20080;-75
2022/10/24 09:25:04;;;;;;;14.30;6.03;;;;;;;16.13;100.00;99914.50;5036026;28;20087;-74
2022/10/24 09:27:37;;;;;;;18.80;6.28;;;;;;;16.21;100.00;99905.91;5040535;28;20140;-74
2022/10/24 09:30:06;;;;;;;13.18;5.68;;;;;;;16.31;100.00;99907.72;5037450;28;20165;-71
2022/10/24 09:32:35;;;;;;;22.90;5.80;;;;;;;16.57;100.00;99907.47;5043623;28;20055;-74
2022/10/24 09:35:11;;;;;;;21.63;5.47;;;;;;;16.68;100.00;99902.19;5044237;28;20054;-72
2022/10/24 09:37:45;;;;;;;19.80;5.95;;;;;;;16.82;100.00;99912.63;5039840;28;20061;-73
2022/10/24 09:40:21;;;;;;;16.08;5.32;;;;;;;16.98;100.00;99913.06;5037188;28;20053;-72
2022/10/24 09:43:05;;;;;;;18.38;5.60;;;;;;;16.91;100.00;99897.63;5044737;28;20055;-73
2022/10/24 09:45:40;;;;;;;15.55;5.30;;;;;;;17.08;100.00;99924.72;5041956;28;20084;-72
2022/10/24 09:48:25;;;;;;;18.38;5.57;;;;;;;16.99;100.00;99903.22;5040661;28;20049;-71
2022/10/24 09:50:57;;;;;;;16.60;5.00;;;;;;;17.24;100.00;99926.13;5033787;28;20621;-73
2022/10/24 09:53:39;;;;;;;13.80;5.07;;;;;;;17.45;100.00;99921.72;5037375;28;20051;-73
2022/10/24 09:56:11;;;;;;;15.10;5.07;;;;;;;17.80;100.00;99929.47;5040735;28;20056;-72
2022/10/24 09:58:38;;;;;;;16.02;5.10;;;;;;;17.95;100.00;99920.13;5043614;28;20055;-73
2022/10/24 10:01:18;;;;;;;16.85;4.75;;;;;;;18.05;100.00;99925.59;5032278;28;20048;-72
2022/10/24 10:04:04;;;;;;;13.75;4.63;;;;;;;17.94;100.00;99917.63;5039860;28;20057;-73
2022/10/24 10:06:41;;;;;;;;;;;;;;;18.02;100.00;99925.84;5042170;28;20059;-70
2022/10/24 10:09:14;;;;;;;14.18;4.60;;;;;;;17.86;100.00;99905.72;5042868;28;19925;-71
2022/10/24 10:11:41;;;;;;;16.98;4.50;;;;;;;18.00;100.00;99936.69;5037274;28;20049;-71
2022/10/24 10:14:28;;;;;;;19.55;4.18;;;;;;;17.94;100.00;99918.47;5040606;28;20493;-73
2022/10/24 10:17:04;;;;;;;12.85;4.10;;;;;;;18.08;100.00;99947.63;5042340;28;20041;-70
2022/10/24 10:19:37;;;;;;;14.07;4.50;;;;;;;18.12;100.00;99934.78;5042161;28;20057;-70
2022/10/24 10:22:30;;;;;;;11.70;4.28;;;;;;;18.04;100.00;99913.16;5032674;28;20138;-71
2022/10/24 10:24:58;;;;;;;16.55;5.45;;;;;;;18.31;100.00;99948.31;5041811;28;20127;-71
2022/10/24 10:27:34;;;;;;;15.98;4.18;;;;;;;18.28;100.00;99931.63;5040919;28;20512;-72
2022/10/24 10:30:15;;;;;;;14.60;4.55;;;;;;;18.28;100.00;99915.56;5034693;28;20136;-72
2022/10/24 10:32:45;;;;;;;15.65;4.40;;;;;;;18.41;100.00;99946.56;5046115;28;20048;-73
2022/10/24 10:35:31;;;;;;;9.73;3.85;;;;;;;18.42;100.00;99939.34;5042776;28;20379;-75
2022/10/24 10:38:04;;;;;;;11.60;3.63;;;;;;;18.43;100.00;99941.03;5043310;28;20052;-74
2022/10/24 10:40:33;;;;;;;9.98;3.70;;;;;;;18.23;100.00;99913.28;5039925;28;20131;-74
2022/10/24 10:43:18;;;;;;;12.52;4.07;;;;;;;18.42;100.00;99926.78;5041292;28;20052;-72
2022/10/24 10:46:04;;;;;;;10.27;3.72;;;;;;;18.49;100.00;99927.97;5042450;28;20637;-74
2022/10/24 10:48:54;;;;;;;12.95;4.50;;;;;;;18.52;100.00;99932.22;5046175;28;20049;-71
2022/10/24 10:51:41;;;;;;;10.13;4.10;;;;;;;18.49;100.00;99941.38;5034643;28;20075;-71
2022/10/24 10:54:29;;;;;;;11.57;3.60;;;;;;;18.54;100.00;99917.69;5042847;28;20765;-73
2022/10/24 10:57:19;;;;;;;9.90;3.85;;;;;;;18.82;100.00;99934.91;5039421;28;20041;-73
2022/10/24 10:59:48;;;;;;;;;;;;;;;18.87;100.00;99930.00;5044338;28;20124;-73
2022/10/24 11:02:39;;;;;;;13.57;3.65;;;;;;;18.96;100.00;99931.00;5034145;28;19932;-74
2022/10/24 11:05:43;;;;;;;13.82;4.15;;;;;;;19.09;100.00;99926.22;5042714;28;20152;-74
2022/10/24 11:08:28;;;;;;;12.60;3.92;;;;;;;19.10;100.00;99929.75;5042989;28;20128;-74
2022/10/24 11:11:15;;;;;;;8.88;3.95;;;;;;;19.19;100.00;99928.94;5035755;28;20500;-72
2022/10/24 11:13:49;;;;;;;11.52;4.50;;;;;;;19.41;100.00;99934.06;5037454;28;20055;-73
2022/10/24 11:16:26;;;;;;;13.70;4.10;;;;;;;19.59;100.00;99929.72;5034329;28;20059;-75
2022/10/24 11:18:58;;;;;;;14.25;3.40;;;;;;;19.72;96.04;99931.28;5041661;28;20044;-73
2022/10/24 11:21:30;;;;;;;8.65;2.63;;;;;;;19.65;92.08;99928.34;5031841;28;20124;-72
2022/10/24 11:24:16;;;;;;;16.17;2.75;;;;;;;19.26;88.50;99909.44;5042483;28;20051;-72
2022/10/24 11:26:46;;;;;;;11.85;3.58;;;;;;;19.17;92.57;99934.47;5041562;28;20077;-72
2022/10/24 11:29:35;;;;;;;8.48;2.75;;;;;;;19.01;91.79;99930.59;5043527;28;20061;-74
2022/10/24 11:32:15;;;;;;;7.63;2.60;;;;;;;18.83;92.36;99930.41;5030023;28;20048;-74
2022/10/24 11:34:45;;;;;;;9.55;3.22;;;;;;;18.83;93.00;99939.28;5038968;28;20060;-73
2022/10/24 11:37:26;;;;;;;;;;;;;;;18.80;96.20;99936.88;5039297;28;20047;-75
2022/10/24 11:40:19;;;;;;;9.65;3.47;;;;;;;18.76;97.05;99927.38;5038018;28;19924;-73